createdAt,value
2023-04-01T00:01:32.728Z,7.50
2023-04-01T00:04:03.233Z,7.50
2023-04-01T00:06:31.632Z,7.50
2023-04-01T00:08:59.508Z,7.40
2023-04-01T00:11:28.330Z,7.50
2023-04-01T00:13:56.146Z,7.50
2023-04-01T00:16:24.085Z,7.50
2023-04-01T00:18:52.819Z,7.40
2023-04-01T00:21:21.958Z,7.30
2023-04-01T00:23:52.123Z,7.40
2023-04-01T00:26:22.646Z,7.30
2023-04-01T00:28:51.146Z,7.30
2023-04-01T00:31:19.346Z,7.20
2023-04-01T00:33:49.852Z,7.10
2023-04-01T00:36:20.229Z,7.20
2023-04-01T00:38:49.046Z,7.30
2023-04-01T00:41:18.234Z,7.10
2023-04-01T00:43:49.737Z,6.90
2023-04-01T00:46:17.541Z,7.00
2023-04-01T00:48:58.852Z,7.00
2023-04-01T00:51:30.221Z,7.00
2023-04-01T00:53:59.401Z,7.00
2023-04-01T00:56:36.907Z,7.10
2023-04-01T00:59:12.657Z,7.00
2023-04-01T01:01:40.847Z,7.00
2023-04-01T01:04:45.133Z,7.00
2023-04-01T01:07:23.130Z,7.00
2023-04-01T01:10:10.585Z,7.00
2023-04-01T01:13:01.260Z,7.00
2023-04-01T01:15:34.335Z,7.10
2023-04-01T01:18:42.457Z,7.00
2023-04-01T01:21:21.793Z,7.00
2023-04-01T01:24:11.564Z,7.10
2023-04-01T01:26:46.922Z,7.20
2023-04-01T01:29:33.228Z,7.20
2023-04-01T01:32:03.948Z,7.20
2023-04-01T01:34:42.587Z,7.20
2023-04-01T01:37:18.402Z,7.20
2023-04-01T01:40:01.359Z,7.20
2023-04-01T01:42:34.534Z,7.30
2023-04-01T01:45:04.458Z,7.20
2023-04-01T01:47:34.078Z,7.20
2023-04-01T01:50:02.527Z,7.20
2023-04-01T01:52:30.986Z,7.30
2023-04-01T01:54:59.745Z,7.30
2023-04-01T01:57:37.474Z,7.20
2023-04-01T02:00:14.500Z,7.20
2023-04-01T02:02:49.117Z,7.30
2023-04-01T02:05:50.522Z,7.20
2023-04-01T02:08:26.422Z,7.20
2023-04-01T02:11:07.503Z,7.20
2023-04-01T02:13:58.283Z,7.20
2023-04-01T02:16:59.611Z,7.20
2023-04-01T02:19:37.518Z,7.20
2023-04-01T02:22:10.417Z,7.20
2023-04-01T02:24:40.718Z,7.10
2023-04-01T02:27:10.013Z,7.20
2023-04-01T02:29:38.599Z,7.20
2023-04-01T02:32:10.869Z,7.20
2023-04-01T02:34:39.057Z,7.20
2023-04-01T02:37:06.735Z,7.20
2023-04-01T02:39:34.472Z,7.10
2023-04-01T02:42:02.341Z,7.10
2023-04-01T02:44:30.921Z,7.10
2023-04-01T02:46:59.617Z,7.10
2023-04-01T02:49:27.567Z,7.10
2023-04-01T02:51:55.635Z,7.10
2023-04-01T02:54:23.493Z,7.10
2023-04-01T02:56:51.163Z,7.10
2023-04-01T02:59:21.749Z,7.10
2023-04-01T03:01:50.270Z,7.10
2023-04-01T03:04:18.492Z,7.20
2023-04-01T03:06:46.646Z,7.20
2023-04-01T03:09:24.247Z,7.10
2023-04-01T03:11:52.095Z,7.20
2023-04-01T03:14:20.256Z,7.30
2023-04-01T03:16:48.491Z,7.20
2023-04-01T03:19:16.114Z,7.30
2023-04-01T03:21:44.378Z,7.20
2023-04-01T03:24:15.104Z,7.30
2023-04-01T03:26:44.204Z,7.30
2023-04-01T03:29:12.371Z,7.30
2023-04-01T03:31:41.561Z,7.20
2023-04-01T03:34:16.086Z,7.20
2023-04-01T03:36:44.302Z,7.20
2023-04-01T03:39:12.038Z,7.20
2023-04-01T03:41:42.979Z,7.20
2023-04-01T03:44:10.944Z,7.10
2023-04-01T03:46:39.265Z,7.10
2023-04-01T03:49:14.742Z,7.10
2023-04-01T03:51:44.291Z,7.10
2023-04-01T03:54:13.247Z,7.00
2023-04-01T03:56:41.648Z,7.10
2023-04-01T03:59:10.083Z,7.00
2023-04-01T04:01:37.973Z,7.00
2023-04-01T04:04:15.727Z,7.00
2023-04-01T04:06:43.926Z,7.00
2023-04-01T04:09:11.700Z,6.90
2023-04-01T04:11:39.575Z,6.80
2023-04-01T04:14:07.257Z,6.90
2023-04-01T04:16:40.253Z,6.80
2023-04-01T04:19:08.094Z,6.80
2023-04-01T04:21:35.908Z,6.80
2023-04-01T04:24:04.110Z,6.80
2023-04-01T04:26:51.947Z,6.80
2023-04-01T04:29:19.719Z,6.80
2023-04-01T04:31:47.697Z,6.80
2023-04-01T04:34:19.575Z,6.80
2023-04-01T04:36:48.354Z,6.70
2023-04-01T04:39:16.662Z,6.60
2023-04-01T04:41:45.398Z,6.60
2023-04-01T04:44:13.563Z,6.60
2023-04-01T04:46:41.440Z,6.70
2023-04-01T04:49:13.808Z,6.60
2023-04-01T04:51:42.508Z,6.70
2023-04-01T04:54:10.998Z,6.70
2023-04-01T04:56:57.106Z,6.70
2023-04-01T04:59:27.493Z,6.70
2023-04-01T05:02:18.411Z,6.60
2023-04-01T05:04:46.350Z,6.60
2023-04-01T05:07:14.113Z,6.60
2023-04-01T05:09:42.046Z,6.50
2023-04-01T05:12:10.574Z,6.50
2023-04-01T05:14:56.690Z,6.60
2023-04-01T05:17:26.143Z,6.70
2023-04-01T05:19:59.055Z,6.70
2023-04-01T05:22:27.331Z,6.70
2023-04-01T05:24:54.986Z,6.80
2023-04-01T05:27:22.819Z,6.90
2023-04-01T05:29:51.020Z,6.90
2023-04-01T05:32:39.071Z,6.90
2023-04-01T05:35:16.357Z,6.90
2023-04-01T05:37:44.330Z,6.90
2023-04-01T05:40:14.140Z,7.00
2023-04-01T05:42:45.884Z,7.10
2023-04-01T05:45:16.952Z,7.10
2023-04-01T05:48:13.404Z,6.90
2023-04-01T05:50:43.145Z,7.10
2023-04-01T05:53:16.070Z,7.10
2023-04-01T05:55:45.351Z,7.00
2023-04-01T05:58:13.739Z,7.10
2023-04-01T06:00:46.749Z,7.20
2023-04-01T06:03:18.167Z,7.30
2023-04-01T06:05:46.150Z,7.30
2023-04-01T06:08:19.865Z,7.30
2023-04-01T06:11:18.591Z,7.30
2023-04-01T06:14:01.946Z,7.50
2023-04-01T06:16:31.175Z,7.50
2023-04-01T06:19:10.107Z,7.60
2023-04-01T06:22:12.583Z,8.00
2023-04-01T06:25:12.242Z,8.30
2023-04-01T06:27:52.245Z,8.40
2023-04-01T06:30:34.612Z,8.30
2023-04-01T06:33:33.616Z,8.30
2023-04-01T06:36:19.335Z,8.60
2023-04-01T06:39:02.052Z,8.80
2023-04-01T06:42:07.471Z,8.90
2023-04-01T06:44:38.507Z,9.00
2023-04-01T06:47:33.228Z,9.20
2023-04-01T06:50:27.812Z,9.70
2023-04-01T06:53:21.253Z,10.10
2023-04-01T06:56:12.807Z,9.60
2023-04-01T06:59:18.466Z,9.50
2023-04-01T07:02:18.241Z,9.80
2023-04-01T07:04:49.587Z,9.90
2023-04-01T07:07:32.717Z,9.60
2023-04-01T07:10:16.350Z,10.10
2023-04-01T07:12:55.802Z,9.60
2023-04-01T07:16:22.873Z,10.00
2023-04-01T07:18:57.816Z,10.70
2023-04-01T07:21:44.262Z,10.40
2023-04-01T07:24:41.241Z,10.20
2023-04-01T07:27:12.468Z,10.80
2023-04-01T07:29:41.561Z,11.20
2023-04-01T07:32:25.737Z,10.80
2023-04-01T07:35:28.925Z,10.90
2023-04-01T07:38:36.137Z,10.00
2023-04-01T07:41:16.981Z,9.30
2023-04-01T07:44:01.641Z,9.10
2023-04-01T07:46:41.179Z,8.90
2023-04-01T07:49:33.502Z,8.90
2023-04-01T07:52:42.329Z,8.90
2023-04-01T07:55:32.202Z,8.90
2023-04-01T07:58:32.240Z,9.20
2023-04-01T08:01:19.292Z,9.40
2023-04-01T08:04:32.533Z,9.60
2023-04-01T08:07:13.255Z,10.10
2023-04-01T08:10:24.454Z,10.00
2023-04-01T08:14:01.116Z,10.20
2023-04-01T08:17:06.559Z,9.70
2023-04-01T08:19:53.194Z,9.80
2023-04-01T08:22:37.526Z,9.60
2023-04-01T08:25:20.937Z,9.90
2023-04-01T08:28:17.112Z,10.20
2023-04-01T08:30:53.934Z,9.70
2023-04-01T08:33:28.565Z,9.30
2023-04-01T08:36:23.806Z,9.30
2023-04-01T08:39:30.135Z,9.40
2023-04-01T08:42:23.197Z,9.20
2023-04-01T08:45:13.119Z,9.20
2023-04-01T08:47:56.607Z,9.30
2023-04-01T08:50:43.215Z,9.40
2023-04-01T08:53:56.185Z,9.40
2023-04-01T08:56:42.759Z,9.50
2023-04-01T08:59:41.114Z,10.40
2023-04-01T09:02:48.111Z,11.50
2023-04-01T09:05:46.123Z,12.00
2023-04-01T09:08:26.609Z,12.10
2023-04-01T09:11:06.679Z,11.50
2023-04-01T09:14:11.174Z,10.90
2023-04-01T09:16:49.838Z,10.80
2023-04-01T09:19:36.320Z,10.60
2023-04-01T09:22:26.194Z,10.70
2023-04-01T09:25:11.165Z,10.40
2023-04-01T09:28:03.375Z,10.30
2023-04-01T09:31:03.669Z,10.50
2023-04-01T09:34:02.562Z,10.50
2023-04-01T09:36:47.003Z,10.40
2023-04-01T09:39:39.390Z,10.30
2023-04-01T09:42:38.348Z,10.50
2023-04-01T09:45:38.957Z,10.90
2023-04-01T09:48:41.038Z,11.00
2023-04-01T09:51:22.009Z,10.90
2023-04-01T09:54:14.463Z,11.30
2023-04-01T09:56:56.213Z,10.90
2023-04-01T09:59:55.544Z,10.80
2023-04-01T10:02:54.803Z,10.60
2023-04-01T10:05:39.020Z,10.60
2023-04-01T10:08:07.468Z,10.80
2023-04-01T10:10:56.061Z,10.90
2023-04-01T10:13:36.989Z,10.90
2023-04-01T10:16:30.702Z,11.00
2023-04-01T10:19:36.530Z,10.90
2023-04-01T10:22:31.207Z,10.80
2023-04-01T10:25:10.151Z,10.90
2023-04-01T10:27:59.711Z,10.90
2023-04-01T10:31:13.342Z,10.90
2023-04-01T10:34:05.273Z,11.10
2023-04-01T10:36:45.139Z,11.20
2023-04-01T10:39:50.466Z,11.00
2023-04-01T10:42:59.586Z,11.00
2023-04-01T10:45:58.306Z,10.80
2023-04-01T10:48:32.696Z,10.80
2023-04-01T10:51:38.749Z,10.90
2023-04-01T10:54:43.215Z,10.90
2023-04-01T10:58:01.009Z,11.00
2023-04-01T11:01:16.948Z,11.20
2023-04-01T11:04:18.697Z,11.40
2023-04-01T11:08:07.307Z,11.60
2023-04-01T11:11:06.330Z,11.50
2023-04-01T11:13:56.926Z,11.20
2023-04-01T11:17:01.619Z,11.00
2023-04-01T11:19:57.750Z,10.70
2023-04-01T11:22:51.419Z,10.60
2023-04-01T11:25:36.071Z,10.50
2023-04-01T11:28:47.220Z,10.20
2023-04-01T11:31:54.087Z,10.00
2023-04-01T11:34:50.086Z,10.00
2023-04-01T11:37:29.629Z,10.00
2023-04-01T11:40:54.972Z,10.10
2023-04-01T11:43:57.432Z,10.30
2023-04-01T11:46:43.482Z,10.20
2023-04-01T11:49:51.557Z,10.10
2023-04-01T11:52:41.907Z,10.10
2023-04-01T11:55:33.355Z,9.90
2023-04-01T11:58:33.550Z,9.80
2023-04-01T12:01:29.005Z,9.80
2023-04-01T12:04:28.516Z,9.90
2023-04-01T12:07:25.803Z,9.90
2023-04-01T12:10:16.664Z,9.80
2023-04-01T12:13:23.188Z,9.80
2023-04-01T12:16:18.977Z,9.60
2023-04-01T12:19:27.642Z,9.70
2023-04-01T12:22:16.401Z,9.60
2023-04-01T12:24:50.646Z,9.30
2023-04-01T12:27:26.391Z,9.20
2023-04-01T12:30:07.658Z,9.10
2023-04-01T12:33:06.530Z,9.00
2023-04-01T12:35:53.537Z,9.10
2023-04-01T12:38:32.277Z,9.20
2023-04-01T12:41:31.595Z,9.20
2023-04-01T12:44:36.488Z,8.90
2023-04-01T12:47:22.409Z,8.70
2023-04-01T12:50:08.802Z,8.50
2023-04-01T12:52:55.420Z,8.50
2023-04-01T12:55:30.856Z,8.40
2023-04-01T12:58:21.772Z,8.20
2023-04-01T13:01:21.008Z,8.20
2023-04-01T13:04:22.747Z,8.10
2023-04-01T13:07:08.924Z,8.10
2023-04-01T13:10:04.516Z,8.10
2023-04-01T13:12:58.778Z,8.00
2023-04-01T13:15:38.623Z,8.00
2023-04-01T13:18:44.020Z,8.00
2023-04-01T13:21:34.468Z,7.90
2023-04-01T13:24:14.972Z,7.80
2023-04-01T13:27:28.844Z,7.90
2023-04-01T13:30:15.420Z,7.80
2023-04-01T13:32:56.220Z,7.80
2023-04-01T13:35:43.410Z,7.70
2023-04-01T13:38:38.327Z,7.70
2023-04-01T13:41:37.121Z,7.60
2023-04-01T13:44:31.211Z,7.60
2023-04-01T13:47:13.879Z,7.60
2023-04-01T13:49:58.825Z,7.60
2023-04-01T13:52:46.101Z,7.60
2023-04-01T13:55:41.305Z,7.60
2023-04-01T13:58:24.525Z,7.50
2023-04-01T14:01:21.477Z,7.50
2023-04-01T14:04:23.463Z,7.50
2023-04-01T14:07:13.715Z,7.50
2023-04-01T14:10:14.274Z,7.40
2023-04-01T14:12:57.586Z,7.40
2023-04-01T14:15:41.368Z,7.40
2023-04-01T14:18:38.471Z,7.40
2023-04-01T14:21:29.788Z,7.40
2023-04-01T14:24:00.436Z,7.40
2023-04-01T14:27:04.481Z,7.50
2023-04-01T14:30:10.398Z,7.60
2023-04-01T14:32:52.930Z,7.70
2023-04-01T14:35:42.312Z,7.70
2023-04-01T14:38:45.151Z,7.80
2023-04-01T14:41:21.834Z,7.80
2023-04-01T14:44:14.980Z,7.90
2023-04-01T14:47:00.673Z,7.90
2023-04-01T14:49:46.058Z,7.90
2023-04-01T14:52:30.084Z,7.90
2023-04-01T14:55:00.206Z,7.90
2023-04-01T14:57:33.401Z,7.90
2023-04-01T15:00:07.617Z,7.90
2023-04-01T15:02:46.488Z,7.90
2023-04-01T15:05:40.115Z,7.90
2023-04-01T15:08:33.492Z,7.80
2023-04-01T15:11:19.770Z,7.90
2023-04-01T15:13:48.149Z,7.80
2023-04-01T15:16:34.819Z,7.80
2023-04-01T15:19:02.319Z,7.90
2023-04-01T15:21:46.358Z,8.00
2023-04-01T15:24:22.108Z,8.00
2023-04-01T15:27:08.936Z,8.10
2023-04-01T15:30:02.424Z,8.10
2023-04-01T15:32:43.801Z,8.20
2023-04-01T15:35:29.027Z,8.10
2023-04-01T15:38:20.153Z,8.20
2023-04-01T15:41:03.079Z,8.10
2023-04-01T15:43:44.251Z,8.20
2023-04-01T15:46:33.199Z,8.20
2023-04-01T15:49:24.096Z,8.20
2023-04-01T15:51:58.929Z,8.30
2023-04-01T15:54:58.548Z,8.30
2023-04-01T15:57:53.603Z,8.30
2023-04-01T16:00:52.197Z,8.40
2023-04-01T16:03:34.952Z,8.30
2023-04-01T16:06:15.709Z,8.20
2023-04-01T16:08:53.229Z,8.20
2023-04-01T16:11:42.158Z,8.20
2023-04-01T16:14:35.717Z,8.20
2023-04-01T16:17:18.226Z,8.20
2023-04-01T16:20:19.576Z,8.20
2023-04-01T16:23:29.967Z,8.20
2023-04-01T16:26:34.599Z,8.20
2023-04-01T16:29:20.724Z,8.20
2023-04-01T16:31:59.624Z,8.30
2023-04-01T16:34:39.292Z,8.30
2023-04-01T16:37:15.832Z,8.40
2023-04-01T16:40:03.824Z,8.40
2023-04-01T16:43:11.357Z,8.40
2023-04-01T16:45:56.706Z,8.40
2023-04-01T16:48:46.583Z,8.50
2023-04-01T16:51:17.829Z,8.50
2023-04-01T16:54:14.681Z,8.40
2023-04-01T16:57:05.616Z,8.40
2023-04-01T16:59:47.694Z,8.50
2023-04-01T17:02:21.663Z,8.40
2023-04-01T17:05:34.112Z,8.40
2023-04-01T17:08:17.757Z,8.40
2023-04-01T17:11:22.291Z,8.30
2023-04-01T17:13:59.578Z,8.30
2023-04-01T17:17:04.036Z,8.20
2023-04-01T17:19:50.484Z,8.20
2023-04-01T17:22:30.233Z,8.10
2023-04-01T17:25:06.577Z,8.10
2023-04-01T17:28:08.234Z,8.00
2023-04-01T17:30:42.462Z,8.10
2023-04-01T17:33:29.055Z,8.20
2023-04-01T17:36:06.632Z,8.10
2023-04-01T17:39:11.384Z,8.00
2023-04-01T17:41:58.825Z,8.00
2023-04-01T17:45:09.173Z,8.00
2023-04-01T17:48:04.876Z,8.00
2023-04-01T17:50:48.532Z,8.10
2023-04-01T17:53:44.448Z,8.10
2023-04-01T17:56:30.957Z,8.10
2023-04-01T17:59:12.036Z,8.10
2023-04-01T18:02:01.197Z,8.10
2023-04-01T18:04:56.198Z,8.00
2023-04-01T18:07:54.143Z,7.90
2023-04-01T18:10:32.659Z,8.00
2023-04-01T18:13:39.533Z,8.00
2023-04-01T18:16:46.367Z,8.00
2023-04-01T18:19:35.732Z,7.90
2023-04-01T18:22:20.521Z,7.90
2023-04-01T18:25:00.845Z,7.80
2023-04-01T18:27:54.796Z,7.90
2023-04-01T18:30:33.966Z,7.90
2023-04-01T18:33:30.297Z,7.80
2023-04-01T18:36:20.626Z,8.00
2023-04-01T18:38:52.587Z,8.00
2023-04-01T18:41:41.282Z,7.90
2023-04-01T18:44:35.986Z,7.80
2023-04-01T18:47:31.402Z,7.90
2023-04-01T18:50:13.908Z,8.00
2023-04-01T18:52:45.859Z,8.10
2023-04-01T18:55:13.646Z,8.00
2023-04-01T18:57:54.614Z,8.00
2023-04-01T19:00:39.998Z,7.90
2023-04-01T19:03:23.059Z,8.00
2023-04-01T19:05:54.673Z,7.90
2023-04-01T19:08:37.420Z,8.00
2023-04-01T19:11:23.677Z,8.00
2023-04-01T19:14:23.349Z,7.90
2023-04-01T19:17:24.107Z,7.80
2023-04-01T19:20:01.099Z,7.90
2023-04-01T19:23:13.922Z,7.80
2023-04-01T19:26:05.144Z,8.00
2023-04-01T19:28:56.838Z,7.90
2023-04-01T19:31:25.023Z,8.00
2023-04-01T19:34:19.518Z,7.90
2023-04-01T19:36:55.867Z,8.00
2023-04-01T19:39:44.116Z,7.90
2023-04-01T19:42:38.946Z,7.80
2023-04-01T19:45:24.852Z,7.80
2023-04-01T19:50:51.104Z,7.70
2023-04-01T19:53:35.006Z,7.70
2023-04-01T19:56:23.383Z,7.70
2023-04-01T19:59:01.030Z,7.60
2023-04-01T20:01:58.443Z,7.60
2023-04-01T20:04:42.127Z,7.70
2023-04-01T20:07:21.606Z,7.70
2023-04-01T20:10:33.083Z,7.60
2023-04-01T20:13:07.927Z,7.70
2023-04-01T20:15:40.775Z,7.70
2023-04-01T20:18:18.877Z,7.70
2023-04-01T20:21:25.689Z,7.70
2023-04-01T20:24:15.983Z,7.70
2023-04-01T20:26:51.720Z,7.60
2023-04-01T20:29:40.678Z,7.60
2023-04-01T20:32:29.637Z,7.60
2023-04-01T20:35:00.304Z,7.60
2023-04-01T20:37:40.951Z,7.60
2023-04-01T20:40:27.341Z,7.40
2023-04-01T20:43:22.699Z,7.40
2023-04-01T20:46:17.593Z,7.30
2023-04-01T20:49:12.377Z,7.40
2023-04-01T20:51:44.214Z,7.40
2023-04-01T20:54:27.771Z,7.30
2023-04-01T20:57:18.687Z,7.40
2023-04-01T21:00:28.181Z,7.40
2023-04-01T21:03:21.071Z,7.30
2023-04-01T21:06:14.390Z,7.30
2023-04-01T21:09:11.238Z,7.40
2023-04-01T21:12:03.688Z,7.40
2023-04-01T21:14:53.118Z,7.30
2023-04-01T21:17:32.325Z,7.40
2023-04-01T21:20:25.004Z,7.40
2023-04-01T21:23:01.358Z,7.40
2023-04-01T21:25:41.145Z,7.40
2023-04-01T21:28:23.455Z,7.40
2023-04-01T21:31:09.752Z,7.30
2023-04-01T21:33:37.287Z,7.30
2023-04-01T21:36:31.985Z,7.40
2023-04-01T21:39:14.509Z,7.30
2023-04-01T21:42:04.471Z,7.40
2023-04-01T21:45:06.152Z,7.40
2023-04-01T21:48:01.176Z,7.40
2023-04-01T21:50:42.983Z,7.40
2023-04-01T21:53:43.770Z,7.30
2023-04-01T21:56:29.423Z,7.30
2023-04-01T21:59:15.019Z,7.30
2023-04-01T22:02:09.207Z,7.40
2023-04-01T22:04:42.514Z,7.40
2023-04-01T22:07:17.988Z,7.40
2023-04-01T22:10:16.866Z,7.40
2023-04-01T22:12:44.493Z,7.40
2023-04-01T22:15:21.071Z,7.40
2023-04-01T22:18:04.300Z,7.30
2023-04-01T22:20:46.108Z,7.30
2023-04-01T22:23:31.465Z,7.30
2023-04-01T22:26:58.645Z,7.20
2023-04-01T22:29:26.485Z,7.30
2023-04-01T22:32:04.216Z,7.40
2023-04-01T22:34:53.246Z,7.40
2023-04-01T22:37:39.640Z,7.30
2023-04-01T22:40:24.917Z,7.30
2023-04-01T22:43:13.687Z,7.30
2023-04-01T22:45:56.755Z,7.30
2023-04-01T22:48:54.934Z,7.30
2023-04-01T22:51:56.976Z,7.20
2023-04-01T22:54:32.668Z,7.20
2023-04-01T22:57:21.822Z,7.20
2023-04-01T22:59:59.644Z,7.30
2023-04-01T23:02:41.185Z,7.30
2023-04-01T23:05:11.920Z,7.30
2023-04-01T23:08:20.328Z,7.40
2023-04-01T23:10:56.090Z,7.40
2023-04-01T23:13:33.094Z,7.40
2023-04-01T23:16:01.342Z,7.40
2023-04-01T23:18:52.133Z,7.30
2023-04-01T23:21:41.369Z,7.30
2023-04-01T23:24:19.006Z,7.30
2023-04-01T23:27:12.744Z,7.40
2023-04-01T23:29:40.936Z,7.30
2023-04-01T23:32:18.011Z,7.30
2023-04-01T23:34:51.802Z,7.20
2023-04-01T23:37:20.979Z,7.20
2023-04-01T23:39:52.327Z,7.30
2023-04-01T23:42:23.102Z,7.30
2023-04-01T23:44:56.299Z,7.30
2023-04-01T23:47:33.363Z,7.20
2023-04-01T23:50:11.009Z,7.20
2023-04-01T23:52:47.197Z,7.20
2023-04-01T23:55:30.436Z,7.20
2023-04-01T23:58:06.980Z,7.20
